createdAt,value
2022-11-27T00:06:15.875Z,2
2022-11-27T00:12:38.640Z,1.7
2022-11-27T00:18:58.638Z,1.7
2022-11-27T00:25:21.471Z,3.7
2022-11-27T00:31:41.566Z,3.7
2022-11-27T00:38:04.485Z,1.9
2022-11-27T00:44:24.566Z,1.9
2022-11-27T00:50:47.602Z,2.4
2022-11-27T00:57:07.694Z,2.4
2022-11-27T01:03:30.566Z,2.1
2022-11-27T01:09:50.611Z,2.1
2022-11-27T01:16:13.732Z,2.4
2022-11-27T01:22:33.657Z,2.4
2022-11-27T01:28:56.588Z,2.3
2022-11-27T01:35:16.675Z,2.3
2022-11-27T01:41:40.721Z,2.7
2022-11-27T01:48:00.549Z,2.7
2022-11-27T01:54:23.478Z,5.8
2022-11-27T02:00:43.656Z,5.8
2022-11-27T02:07:06.705Z,2.7
2022-11-27T02:13:26.644Z,2.7
2022-11-27T02:19:49.607Z,3.4
2022-11-27T02:26:09.639Z,3.4
2022-11-27T02:32:32.636Z,4.9
2022-11-27T02:38:52.699Z,4.9
2022-11-27T02:45:15.742Z,5.2
2022-11-27T02:51:35.653Z,5.2
2022-11-27T02:57:58.653Z,9.8
2022-11-27T03:04:18.650Z,9.8
2022-11-27T03:10:41.575Z,4.9
2022-11-27T03:17:01.503Z,4.9
2022-11-27T03:23:24.598Z,5.8
2022-11-27T03:29:44.709Z,5.8
2022-11-27T03:36:07.634Z,5.7
2022-11-27T03:42:27.739Z,5.7
2022-11-27T03:48:50.623Z,5.7
2022-11-27T03:55:10.569Z,5.7
2022-11-27T04:01:33.766Z,7.1
2022-11-27T04:24:21.531Z,4.1
2022-11-27T04:30:41.461Z,4.1
2022-11-27T04:37:04.509Z,4.8
2022-11-27T04:43:24.597Z,4.8
2022-11-27T04:49:47.657Z,8.5
2022-11-27T04:56:07.489Z,8.5
2022-11-27T05:02:30.733Z,3.8
2022-11-27T05:08:50.490Z,3.8
2022-11-27T05:15:13.553Z,9.3
2022-11-27T05:21:33.732Z,9.3
2022-11-27T05:27:56.552Z,7.1
2022-11-27T05:34:16.585Z,7.1
2022-11-27T05:40:39.690Z,2.9
2022-11-27T05:46:59.554Z,2.9
2022-11-27T05:53:22.581Z,5
2022-11-27T05:59:42.577Z,5
2022-11-27T06:06:05.659Z,5.8
2022-11-27T06:12:25.550Z,5.8
2022-11-27T06:18:48.646Z,6.2
2022-11-27T06:25:08.526Z,6.2
2022-11-27T06:31:31.596Z,4.3
2022-11-27T06:37:51.679Z,4.3
2022-11-27T06:44:14.482Z,4.9
2022-11-27T06:50:34.470Z,4.9
2022-11-27T06:56:57.696Z,4.5
2022-11-27T07:03:17.565Z,4.5
2022-11-27T07:09:40.622Z,4.2
2022-11-27T07:16:00.745Z,4.2
2022-11-27T07:22:23.534Z,5.7
2022-11-27T07:28:43.586Z,5.7
2022-11-27T07:35:06.711Z,4.2
2022-11-27T07:41:30.736Z,4.2
2022-11-27T07:47:49.572Z,4
2022-11-27T07:54:09.848Z,4
2022-11-27T08:00:32.633Z,5.4
2022-11-27T08:06:52.557Z,5.4
2022-11-27T08:13:15.625Z,4.1
2022-11-27T08:19:35.660Z,4.1
2022-11-27T08:25:58.553Z,5.4
2022-11-27T08:32:18.693Z,5.4
2022-11-27T08:38:41.577Z,4.2
2022-11-27T08:45:01.608Z,4.2
2022-11-27T08:51:24.728Z,3.8
2022-11-27T08:57:44.528Z,3.8
2022-11-27T09:04:07.732Z,5.3
2022-11-27T09:10:27.642Z,5.3
2022-11-27T09:26:55.754Z,8.6
2022-11-27T09:33:15.512Z,8.6
2022-11-27T09:39:38.744Z,8.6
2022-11-27T09:45:58.791Z,8.6
2022-11-27T09:52:21.487Z,3.1
2022-11-27T09:58:41.610Z,3.1
2022-11-27T10:05:13.703Z,3
2022-11-27T10:11:24.614Z,3
2022-11-27T10:17:47.591Z,3.6
2022-11-27T10:24:07.663Z,3.6
2022-11-27T10:30:30.612Z,1.9
2022-11-27T10:36:50.536Z,1.9
2022-11-27T23:26:18.751Z,5.5
2022-11-27T23:32:38.527Z,5.5
2022-11-27T23:39:01.452Z,5.5
2022-11-27T23:45:21.730Z,5.5
2022-11-27T23:51:44.620Z,3.7
2022-11-27T23:58:04.533Z,3.7
